Oxford, Kansas
Current Conditions -  °F | °C
As of 1:54 AM on Friday 19 Dec 2014 (Local Time) from KWLD Reporting Station
Overcast Overcast  
Wind Chill: 27°   Ceiling: 700
Heat Index: 33°   Visibility: 9mi
Dew Point: 31°   Wind: 7mph
Humidity: 92%   Direction: 10°N
Pressure: 30.24"   Gusts: NA
Location:  37.27°N, 97.17°W
Report Text: KWLD 190754Z AUTO 01006KT 9SM OVC007 01/M01 A3024 RMK AO2 SLP250 T00061006
Loading
Personal Weather Stations






























Interactive Weather Map New forecast layout! Learn more

10-Day Weather Forecast

Advertisements
Track Severe Weather on mobile